createdAt,value
2019-05-16T00:00:33.300Z,98069.05
2019-05-16T00:03:07.903Z,98068.62
2019-05-16T00:05:50.345Z,98063.30
2019-05-16T00:08:13.377Z,98060.39
2019-05-16T00:10:45.838Z,98052.64
2019-05-16T00:13:18.596Z,98054.15
2019-05-16T00:15:50.954Z,98049.50
2019-05-16T00:18:23.072Z,98048.97
2019-05-16T00:20:55.207Z,98047.85
2019-05-16T00:23:28.867Z,98045.77
2019-05-16T00:26:02.214Z,98042.80
2019-05-16T00:28:34.810Z,98034.42
2019-05-16T00:31:08.601Z,98031.91
2019-05-16T00:33:40.910Z,98028.34
2019-05-16T00:36:13.036Z,98022.77
2019-05-16T00:38:45.566Z,98021.45
2019-05-16T00:41:18.143Z,98020.29
2019-05-16T00:43:50.473Z,98020.63
2019-05-16T00:46:22.932Z,98026.08
2019-05-16T00:48:55.046Z,98023.31
2019-05-16T00:51:28.784Z,98023.73
2019-05-16T00:54:01.114Z,98013.23
2019-05-16T00:56:35.411Z,98011.95
2019-05-16T00:59:08.809Z,98009.70
2019-05-16T01:01:40.950Z,98003.08
2019-05-16T01:04:13.074Z,97998.85
2019-05-16T01:06:45.190Z,98000.56
2019-05-16T01:09:18.779Z,97991.30
2019-05-16T01:11:51.062Z,97992.44
2019-05-16T01:14:23.189Z,97991.81
2019-05-16T01:16:55.310Z,97992.41
2019-05-16T01:19:27.844Z,97986.00
2019-05-16T01:22:00.136Z,97981.63
2019-05-16T01:24:32.715Z,97976.82
2019-05-16T01:27:05.399Z,97971.97
2019-05-16T01:29:38.541Z,97970.70
2019-05-16T01:32:10.780Z,97963.76
2019-05-16T01:34:43.772Z,97966.59
2019-05-16T01:37:15.896Z,97961.77
2019-05-16T01:39:48.511Z,97958.45
2019-05-16T01:42:21.051Z,97956.61
2019-05-16T01:44:53.131Z,97947.24
2019-05-16T01:47:25.261Z,97947.98
2019-05-16T01:49:58.128Z,97945.31
2019-05-16T01:52:30.302Z,97943.51
2019-05-16T01:55:02.523Z,97939.23
2019-05-16T01:57:35.105Z,97935.28
2019-05-16T02:00:08.593Z,97936.88
2019-05-16T02:02:40.905Z,97935.95
2019-05-16T02:05:13.242Z,97936.30
2019-05-16T02:07:47.874Z,97927.89
2019-05-16T02:10:20.043Z,97919.29
2019-05-16T02:12:52.188Z,97925.21
2019-05-16T02:15:24.510Z,97911.81
2019-05-16T02:17:58.655Z,97913.63
2019-05-16T02:20:30.449Z,97907.91
2019-05-16T02:23:02.579Z,97906.99
2019-05-16T02:25:38.215Z,97901.12
2019-05-16T02:28:10.142Z,97899.51
2019-05-16T02:30:42.830Z,97893.45
2019-05-16T02:33:15.284Z,97895.56
2019-05-16T02:35:54.830Z,97892.78
2019-05-16T02:38:21.995Z,97887.17
2019-05-16T02:40:55.169Z,97886.80
2019-05-16T02:43:31.056Z,97890.22
2019-05-16T02:46:02.004Z,97888.03
2019-05-16T02:48:35.281Z,97882.79
2019-05-16T02:51:10.820Z,97881.94
2019-05-16T02:53:41.951Z,97876.97
2019-05-16T02:56:14.260Z,97876.31
2019-05-16T02:58:46.399Z,97869.00
2019-05-16T03:01:21.378Z,97868.47
2019-05-16T03:03:52.837Z,97860.40
2019-05-16T03:06:27.902Z,97869.36
2019-05-16T03:09:05.153Z,97866.72
2019-05-16T03:11:36.625Z,97871.33
2019-05-16T03:14:11.205Z,97871.12
2019-05-16T03:16:44.203Z,97872.88
2019-05-16T03:19:21.630Z,97867.27
2019-05-16T03:21:55.427Z,97865.07
2019-05-16T03:24:30.783Z,97864.53
2019-05-16T03:27:01.817Z,97867.75
2019-05-16T03:29:34.486Z,97867.16
2019-05-16T03:32:07.073Z,97866.13
2019-05-16T03:34:43.858Z,97860.21
2019-05-16T03:37:14.554Z,97855.98
2019-05-16T03:39:51.250Z,97850.94
2019-05-16T03:42:22.583Z,97853.95
2019-05-16T03:44:54.712Z,97849.06
2019-05-16T03:47:31.046Z,97847.73
2019-05-16T03:50:01.781Z,97842.54
2019-05-16T03:52:33.913Z,97836.63
2019-05-16T03:55:10.704Z,97838.66
2019-05-16T03:57:41.885Z,97838.02
2019-05-16T04:00:16.443Z,97839.14
2019-05-16T04:02:52.067Z,97848.68
2019-05-16T04:05:23.149Z,97845.41
2019-05-16T04:08:10.372Z,97843.86
2019-05-16T04:10:30.953Z,97841.56
2019-05-16T04:13:03.155Z,97838.73
2019-05-16T04:15:35.283Z,97841.05
2019-05-16T04:18:07.514Z,97835.06
2019-05-16T04:20:40.715Z,97834.48
2019-05-16T04:23:13.400Z,97832.90
2019-05-16T04:25:45.580Z,97838.76
2019-05-16T04:28:21.305Z,97836.72
2019-05-16T04:30:51.529Z,97838.63
2019-05-16T04:33:24.200Z,97834.33
2019-05-16T04:35:56.431Z,97835.75
2019-05-16T04:38:39.075Z,97830.27
2019-05-16T04:41:02.925Z,97827.20
2019-05-16T04:43:35.046Z,97821.42
2019-05-16T04:46:07.271Z,97822.70
2019-05-16T04:48:41.785Z,97817.71
2019-05-16T04:51:13.722Z,97812.21
2019-05-16T04:53:45.853Z,97816.02
2019-05-16T04:56:21.309Z,97810.34
2019-05-16T04:58:52.606Z,97806.13
2019-05-16T05:01:24.715Z,97809.39
2019-05-16T05:04:06.158Z,97800.30
2019-05-16T05:06:31.471Z,97804.45
2019-05-16T05:09:05.035Z,97802.25
2019-05-16T05:11:37.160Z,97799.41
2019-05-16T05:14:10.627Z,97802.51
2019-05-16T05:16:43.302Z,97809.66
2019-05-16T05:19:15.874Z,97808.78
2019-05-16T05:21:51.206Z,97812.78
2019-05-16T05:24:23.027Z,97803.24
2019-05-16T05:26:55.623Z,97803.03
2019-05-16T05:29:27.786Z,97797.93
2019-05-16T05:32:04.318Z,97803.50
2019-05-16T05:34:34.985Z,97800.53
2019-05-16T05:37:07.563Z,97796.78
2019-05-16T05:39:39.813Z,97797.42
2019-05-16T05:42:11.987Z,97801.09
2019-05-16T05:44:44.167Z,97800.77
2019-05-16T05:47:16.282Z,97796.20
2019-05-16T05:49:49.849Z,97796.92
2019-05-16T05:52:22.117Z,97797.18
2019-05-16T05:54:54.240Z,97793.14
2019-05-16T05:57:29.846Z,97789.56
2019-05-16T06:00:01.074Z,97783.03
2019-05-16T06:02:33.193Z,97781.48
2019-05-16T06:05:06.712Z,97778.52
2019-05-16T06:07:40.502Z,97781.05
2019-05-16T06:10:13.155Z,97774.34
2019-05-16T06:12:45.270Z,97778.00
2019-05-16T06:15:20.091Z,97774.67
2019-05-16T06:17:52.091Z,97767.53
2019-05-16T06:20:24.618Z,97768.61
2019-05-16T06:22:56.870Z,97762.95
2019-05-16T06:25:31.482Z,97765.30
2019-05-16T06:28:02.872Z,97764.36
2019-05-16T06:30:35.043Z,97763.65
2019-05-16T06:33:07.277Z,97761.97
2019-05-16T06:35:40.183Z,97754.78
2019-05-16T06:38:13.425Z,97752.37
2019-05-16T06:40:45.717Z,97753.66
2019-05-16T06:43:20.521Z,97754.42
2019-05-16T06:45:53.582Z,97755.58
2019-05-16T06:48:26.159Z,97754.53
2019-05-16T06:51:02.786Z,97752.36
2019-05-16T06:53:33.117Z,97750.69
2019-05-16T06:56:05.609Z,97749.19
2019-05-16T06:58:47.624Z,97750.59
2019-05-16T07:01:12.472Z,97749.19
2019-05-16T07:03:45.092Z,97748.12
2019-05-16T07:06:37.846Z,97745.45
2019-05-16T07:08:52.095Z,97747.40
2019-05-16T07:11:24.389Z,97746.98
2019-05-16T07:13:56.671Z,97748.55
2019-05-16T07:16:29.936Z,97742.02
2019-05-16T07:19:02.500Z,97742.10
2019-05-16T07:21:36.014Z,97744.64
2019-05-16T07:24:10.870Z,97739.33
2019-05-16T07:26:43.079Z,97739.69
2019-05-16T07:29:15.418Z,97733.94
2019-05-16T07:31:48.248Z,97734.50
2019-05-16T07:34:20.811Z,97733.09
2019-05-16T07:36:53.628Z,97730.97
2019-05-16T07:39:26.483Z,97728.91
2019-05-16T07:41:59.933Z,97724.61
2019-05-16T07:44:32.700Z,97717.64
2019-05-16T07:47:04.945Z,97722.46
2019-05-16T07:49:37.245Z,97724.73
2019-05-16T07:52:09.943Z,97725.91
2019-05-16T07:54:42.332Z,97720.32
2019-05-16T07:57:19.492Z,97721.16
2019-05-16T07:59:50.711Z,97715.06
2019-05-16T08:02:23.177Z,97714.45
2019-05-16T08:04:55.463Z,97710.15
2019-05-16T08:07:27.753Z,97704.88
2019-05-16T08:10:00.603Z,97705.88
2019-05-16T08:12:33.343Z,97708.92
2019-05-16T08:15:05.856Z,97708.48
2019-05-16T08:17:41.371Z,97708.16
2019-05-16T08:20:13.473Z,97705.05
2019-05-16T08:22:45.752Z,97711.12
2019-05-16T08:25:20.403Z,97704.87
2019-05-16T08:27:52.626Z,97704.72
2019-05-16T08:30:25.145Z,97701.55
2019-05-16T08:33:02.467Z,97699.25
2019-05-16T08:35:33.122Z,97704.24
2019-05-16T08:38:05.653Z,97702.41
2019-05-16T08:41:01.155Z,97699.29
2019-05-16T08:43:12.249Z,97699.25
2019-05-16T08:45:44.533Z,97696.98
2019-05-16T08:48:16.845Z,97691.92
2019-05-16T08:53:23.817Z,97688.61
2019-05-16T08:55:57.014Z,97683.35
2019-05-16T08:58:33.106Z,97685.25
2019-05-16T09:01:04.278Z,97686.85
2019-05-16T09:03:36.565Z,97683.81
2019-05-16T09:06:11.522Z,97681.44
2019-05-16T09:08:43.224Z,97677.56
2019-05-16T09:10:41.206Z,97688.97
2019-05-16T09:11:31.439Z,97674.11
2019-05-16T09:13:49.754Z,97673.95
2019-05-16T09:16:22.498Z,97675.60
2019-05-16T09:18:57.363Z,97672.70
2019-05-16T09:21:28.681Z,97673.94
2019-05-16T09:24:00.995Z,97672.69
2019-05-16T09:26:33.734Z,97672.12
2019-05-16T09:29:08.246Z,97660.87
2019-05-16T09:31:40.717Z,97659.78
2019-05-16T09:34:13.295Z,97658.01
2019-05-16T09:36:48.153Z,97657.66
2019-05-16T09:39:20.342Z,97662.95
2019-05-16T09:41:55.595Z,97652.87
2019-05-16T09:44:27.339Z,97655.92
2019-05-16T09:47:00.328Z,97659.81
2019-05-16T09:49:33.015Z,97649.61
2019-05-16T09:52:07.497Z,97651.59
2019-05-16T09:54:40.609Z,97649.04
2019-05-16T09:57:13.779Z,97650.15
2019-05-16T09:59:46.644Z,97647.03
2019-05-16T10:02:19.159Z,97648.44
2019-05-16T10:04:51.501Z,97644.38
2019-05-16T10:07:28.016Z,97643.89
2019-05-16T10:09:58.513Z,97637.49
2019-05-16T10:12:31.823Z,97633.64
2019-05-16T10:15:07.264Z,97628.92
2019-05-16T10:17:38.532Z,97635.42
2019-05-16T10:20:13.069Z,97630.66
2019-05-16T10:22:50.257Z,97635.94
2019-05-16T10:25:21.855Z,97633.21
2019-05-16T10:27:54.685Z,97639.96
2019-05-16T10:30:27.281Z,97638.00
2019-05-16T10:33:01.004Z,97641.31
2019-05-16T10:35:36.992Z,97636.95
2019-05-16T10:38:08.310Z,97638.33
2019-05-16T10:40:41.050Z,97636.36
2019-05-16T10:43:13.334Z,97638.26
2019-05-16T10:45:46.762Z,97640.14
2019-05-16T10:48:19.051Z,97637.31
2019-05-16T10:50:51.917Z,97635.12
2019-05-16T10:53:52.367Z,97626.12
2019-05-16T10:55:58.232Z,97631.23
2019-05-16T10:58:37.248Z,97629.66
2019-05-16T11:01:21.031Z,97629.83
2019-05-16T11:03:39.275Z,97628.14
2019-05-16T11:06:24.766Z,97634.56
2019-05-16T11:08:46.672Z,97626.86
2019-05-16T11:11:20.013Z,97629.89
2019-05-16T11:13:52.914Z,97627.83
2019-05-16T11:16:27.508Z,97626.11
2019-05-16T11:19:14.451Z,97629.61
2019-05-16T11:21:37.532Z,97625.02
2019-05-16T11:24:12.676Z,97628.48
2019-05-16T11:26:44.068Z,97624.16
2019-05-16T11:29:16.809Z,97626.57
2019-05-16T11:31:49.106Z,97625.93
2019-05-16T11:34:21.490Z,97623.36
2019-05-16T11:36:56.884Z,97624.28
2019-05-16T11:39:28.801Z,97621.55
2019-05-16T11:42:01.080Z,97622.72
2019-05-16T11:44:33.473Z,97623.52
2019-05-16T11:47:08.269Z,97619.36
2019-05-16T11:49:39.905Z,97615.04
2019-05-16T11:52:12.181Z,97611.18
2019-05-16T11:54:46.772Z,97613.50
2019-05-16T11:57:18.474Z,97607.51
2019-05-16T11:59:50.760Z,97608.62
2019-05-16T12:02:24.226Z,97607.08
2019-05-16T12:04:57.876Z,97598.11
2019-05-16T12:07:33.551Z,97606.02
2019-05-16T12:10:07.372Z,97604.26
2019-05-16T12:12:39.046Z,97605.67
2019-05-16T12:15:12.139Z,97603.40
2019-05-16T12:17:59.057Z,97604.31
2019-05-16T12:20:19.408Z,97604.06
2019-05-16T12:22:52.159Z,97601.47
2019-05-16T12:25:24.498Z,97601.22
2019-05-16T12:27:56.969Z,97604.41
2019-05-16T12:30:29.938Z,97606.85
2019-05-16T12:33:02.314Z,97596.14
2019-05-16T12:35:36.881Z,97598.23
2019-05-16T12:38:09.016Z,97596.47
2019-05-16T12:40:41.305Z,97588.05
2019-05-16T12:43:14.699Z,97584.41
2019-05-16T12:45:47.602Z,97582.90
2019-05-16T12:48:20.509Z,97589.25
2019-05-16T12:50:52.944Z,97581.05
2019-05-16T12:53:31.679Z,97571.58
2019-05-16T12:55:59.457Z,97572.31
2019-05-16T12:58:37.696Z,97579.64
2019-05-16T13:01:07.743Z,97575.13
2019-05-16T13:03:40.063Z,97572.45
2019-05-16T13:06:12.343Z,97568.88
2019-05-16T13:08:46.844Z,97566.89
2019-05-16T13:11:19.120Z,97570.38
2019-05-16T13:14:03.411Z,97565.01
2019-05-16T13:16:28.083Z,97569.64
2019-05-16T13:19:00.546Z,97563.04
2019-05-16T13:21:33.477Z,97569.36
2019-05-16T13:24:06.913Z,97563.94
2019-05-16T13:26:39.493Z,97554.17
2019-05-16T13:29:12.698Z,97560.13
2019-05-16T13:31:47.641Z,97558.88
2019-05-16T13:34:18.996Z,97552.34
2019-05-16T13:36:52.258Z,97550.86
2019-05-16T13:39:27.466Z,97549.53
2019-05-16T13:41:59.265Z,97547.20
2019-05-16T13:44:31.379Z,97538.23
2019-05-16T13:47:03.651Z,97541.28
2019-05-16T13:49:38.611Z,97539.61
2019-05-16T13:52:10.643Z,97533.88
2019-05-16T13:54:42.773Z,97535.31
2019-05-16T13:57:17.123Z,97531.37
2019-05-16T13:59:49.388Z,97532.02
2019-05-16T14:02:21.519Z,97539.43
2019-05-16T14:04:56.444Z,97538.25
2019-05-16T14:07:29.131Z,97541.36
2019-05-16T14:10:01.600Z,97537.01
2019-05-16T14:12:36.722Z,97532.62
2019-05-16T14:15:10.448Z,97527.17
2019-05-16T14:17:42.584Z,97524.92
2019-05-16T14:20:18.196Z,97521.34
2019-05-16T14:22:49.945Z,97521.50
2019-05-16T14:25:22.674Z,97522.09
2019-05-16T14:27:56.828Z,97522.48
2019-05-16T14:30:29.320Z,97517.71
2019-05-16T14:33:02.874Z,97515.02
2019-05-16T14:35:37.403Z,97516.73
2019-05-16T14:38:08.999Z,97516.66
2019-05-16T14:40:41.575Z,97518.76
2019-05-16T14:43:14.319Z,97514.94
2019-05-16T14:45:47.534Z,97518.33
2019-05-16T14:48:19.666Z,97516.31
2019-05-16T14:50:52.163Z,97511.84
2019-05-16T14:53:28.202Z,97510.53
2019-05-16T14:55:59.040Z,97506.59
2019-05-16T14:58:32.547Z,97506.05
2019-05-16T15:01:07.334Z,97507.73
2019-05-16T15:03:39.731Z,97502.81
2019-05-16T15:06:11.966Z,97502.36
2019-05-16T15:08:44.100Z,97498.02
2019-05-16T15:11:17.995Z,97498.27
2019-05-16T15:13:50.660Z,97501.87
2019-05-16T15:16:23.118Z,97503.09
2019-05-16T15:18:57.544Z,97506.14
2019-05-16T15:21:29.394Z,97505.80
2019-05-16T15:24:01.612Z,97503.21
2019-05-16T15:26:33.786Z,97508.05
2019-05-16T15:29:08.119Z,97511.35
2019-05-16T15:31:40.924Z,97515.73
2019-05-16T15:34:13.720Z,97509.71
2019-05-16T15:36:46.697Z,97510.92
2019-05-16T15:39:19.552Z,97511.42
2019-05-16T15:41:52.579Z,97508.13
2019-05-16T15:44:27.199Z,97505.86
2019-05-16T15:47:00.141Z,97504.47
2019-05-16T15:49:33.073Z,97500.06
2019-05-16T15:52:07.335Z,97502.84
2019-05-16T15:54:42.058Z,97499.99
2019-05-16T15:57:17.445Z,97500.27
2019-05-16T15:59:49.188Z,97498.52
2019-05-16T16:02:21.979Z,97497.88
2019-05-16T16:04:54.454Z,97491.63
2019-05-16T16:07:27.353Z,97481.95
2019-05-16T16:10:00.441Z,97483.16
2019-05-16T16:12:33.031Z,97486.61
2019-05-16T16:15:07.574Z,97483.59
2019-05-16T16:17:40.666Z,97486.16
2019-05-16T16:20:12.988Z,97483.12
2019-05-16T16:22:46.900Z,97485.25
2019-05-16T16:25:19.870Z,97478.63
2019-05-16T16:27:51.986Z,97487.62
2019-05-16T16:30:24.627Z,97482.12
2019-05-16T16:32:57.661Z,97480.39
2019-05-16T16:35:31.309Z,97475.09
2019-05-16T16:38:03.514Z,97471.03
2019-05-16T16:40:37.485Z,97471.83
2019-05-16T16:43:09.776Z,97472.83
2019-05-16T16:45:42.443Z,97473.11
2019-05-16T16:48:17.221Z,97477.60
2019-05-16T16:50:49.938Z,97481.38
2019-05-16T16:53:22.945Z,97481.45
2019-05-16T16:55:56.866Z,97482.13
2019-05-16T16:58:29.642Z,97478.84
2019-05-16T17:01:01.887Z,97479.64
2019-05-16T17:03:36.394Z,97482.80
2019-05-16T17:06:08.702Z,97485.37
2019-05-16T17:08:41.279Z,97483.29
2019-05-16T17:11:13.862Z,97484.73
2019-05-16T17:13:47.293Z,97481.28
2019-05-16T17:16:25.795Z,97478.77
2019-05-16T17:18:56.747Z,97476.63
2019-05-16T17:21:28.168Z,97479.16
2019-05-16T17:24:00.877Z,97475.98
2019-05-16T17:26:33.531Z,97481.64
2019-05-16T17:29:06.508Z,97480.64
2019-05-16T17:31:39.920Z,97479.55
2019-05-16T17:34:12.583Z,97478.31
2019-05-16T17:36:46.605Z,97480.78
2019-05-16T17:39:18.811Z,97483.59
2019-05-16T17:41:54.742Z,97482.34
2019-05-16T17:44:27.246Z,97478.03
2019-05-16T17:47:00.342Z,97478.68
2019-05-16T17:49:32.913Z,97480.80
2019-05-16T17:52:06.971Z,97480.56
2019-05-16T17:54:39.228Z,97478.35
2019-05-16T17:57:11.693Z,97482.59
2019-05-16T17:59:43.812Z,97486.11
2019-05-16T18:02:17.286Z,97481.59
2019-05-16T18:04:49.521Z,97478.33
2019-05-16T18:07:21.639Z,97484.44
2019-05-16T18:09:56.627Z,97481.67
2019-05-16T18:12:28.530Z,97481.27
2019-05-16T18:15:00.997Z,97480.27
2019-05-16T18:17:33.577Z,97477.80
2019-05-16T18:20:06.673Z,97478.89
2019-05-16T18:22:39.924Z,97475.88
2019-05-16T18:25:13.241Z,97474.65
2019-05-16T18:27:45.483Z,97473.32
2019-05-16T18:30:19.717Z,97474.97
2019-05-16T18:32:52.422Z,97475.36
2019-05-16T18:35:24.550Z,97476.27
2019-05-16T18:37:58.376Z,97475.99
2019-05-16T18:40:30.498Z,97470.55
2019-05-16T18:43:02.629Z,97476.41
2019-05-16T18:45:36.681Z,97473.39
2019-05-16T18:48:09.044Z,97473.39
2019-05-16T18:50:41.615Z,97474.40
2019-05-16T18:53:14.074Z,97472.41
2019-05-16T18:55:47.091Z,97472.61
2019-05-16T18:58:20.107Z,97472.97
2019-05-16T19:00:52.558Z,97476.06
2019-05-16T19:03:27.019Z,97470.94
2019-05-16T19:06:00.168Z,97470.70
2019-05-16T19:08:33.623Z,97474.17
2019-05-16T19:11:07.538Z,97473.67
2019-05-16T19:13:40.275Z,97470.31
2019-05-16T19:16:12.932Z,97468.28
2019-05-16T19:18:46.170Z,97465.50
2019-05-16T19:21:19.299Z,97469.16
2019-05-16T19:23:51.759Z,97467.20
2019-05-16T19:26:27.292Z,97465.80
2019-05-16T19:28:59.421Z,97464.89
2019-05-16T19:31:32.237Z,97457.56
2019-05-16T19:34:06.984Z,97461.33
2019-05-16T19:36:39.357Z,97457.64
2019-05-16T19:39:12.167Z,97457.73
2019-05-16T19:41:46.481Z,97452.64
2019-05-16T19:44:18.571Z,97450.95
2019-05-16T19:46:50.747Z,97445.67
2019-05-16T19:49:23.663Z,97442.46
2019-05-16T19:51:56.685Z,97448.55
2019-05-16T19:54:29.368Z,97444.62
2019-05-16T19:57:02.188Z,97450.55
2019-05-16T19:59:36.577Z,97451.38
2019-05-16T20:02:08.980Z,97449.64
2019-05-16T20:04:41.206Z,97446.28
2019-05-16T20:07:16.652Z,97454.27
2019-05-16T20:09:48.214Z,97446.94
2019-05-16T20:12:21.106Z,97449.91
2019-05-16T20:15:06.865Z,97455.77
2019-05-16T20:17:27.666Z,97451.31
2019-05-16T20:19:59.785Z,97450.31
2019-05-16T20:22:32.472Z,97445.03
2019-05-16T20:25:05.184Z,97443.59
2019-05-16T20:27:37.736Z,97444.23
2019-05-16T20:30:13.558Z,97438.62
2019-05-16T20:32:45.687Z,97440.27
2019-05-16T20:35:18.805Z,97433.85
2019-05-16T20:37:51.591Z,97437.86
2019-05-16T20:40:23.819Z,97437.53
2019-05-16T20:42:59.349Z,97433.88
2019-05-16T20:45:30.207Z,97432.79
2019-05-16T20:48:10.809Z,97434.07
2019-05-16T20:50:37.189Z,97430.86
2019-05-16T20:53:11.252Z,97425.56
2019-05-16T20:55:46.420Z,97433.28
2019-05-16T20:58:18.678Z,97430.91
2019-05-16T21:00:51.891Z,97428.19
2019-05-16T21:03:26.903Z,97432.34
2019-05-16T21:05:58.842Z,97427.05
2019-05-16T21:08:31.007Z,97422.37
2019-05-16T21:11:03.137Z,97421.56
2019-05-16T21:13:35.584Z,97421.38
2019-05-16T21:16:08.164Z,97415.45
2019-05-16T21:18:40.282Z,97414.66
2019-05-16T21:21:12.861Z,97415.86
2019-05-16T21:23:47.010Z,97413.13
2019-05-16T21:26:19.778Z,97404.96
2019-05-16T21:28:52.570Z,97401.59
2019-05-16T21:31:27.341Z,97404.81
2019-05-16T21:33:58.507Z,97408.84
2019-05-16T21:36:31.117Z,97406.66
2019-05-16T21:39:06.431Z,97409.55
2019-05-16T21:41:38.647Z,97400.89
2019-05-16T21:44:11.878Z,97401.05
2019-05-16T21:46:46.810Z,97401.20
2019-05-16T21:49:19.728Z,97397.00
2019-05-16T21:51:52.369Z,97395.80
2019-05-16T21:54:28.604Z,97394.59
2019-05-16T21:56:58.863Z,97388.42
2019-05-16T21:59:31.773Z,97389.11
2019-05-16T22:02:05.073Z,97391.84
2019-05-16T22:04:37.833Z,97389.64
2019-05-16T22:07:11.069Z,97386.64
2019-05-16T22:09:43.638Z,97384.55
2019-05-16T22:12:17.380Z,97381.98
2019-05-16T22:14:53.663Z,97379.94
2019-05-16T22:17:27.530Z,97381.34
2019-05-16T22:20:00.378Z,97382.42
2019-05-16T22:22:33.166Z,97383.22
2019-05-16T22:25:07.627Z,97381.30
2019-05-16T22:27:40.309Z,97382.59
2019-05-16T22:30:17.437Z,97384.06
2019-05-16T22:32:49.955Z,97389.45
2019-05-16T22:35:22.664Z,97388.38
2019-05-16T22:37:59.072Z,97386.32
2019-05-16T22:40:33.190Z,97383.76
2019-05-16T22:43:09.721Z,97384.33
2019-05-16T22:45:38.210Z,97378.44
2019-05-16T22:48:10.351Z,97375.23
2019-05-16T22:50:42.466Z,97373.98
2019-05-16T22:53:17.279Z,97373.98
2019-05-16T22:55:48.943Z,97369.10
2019-05-16T22:58:21.200Z,97363.09
2019-05-16T23:00:53.530Z,97362.77
2019-05-16T23:03:26.819Z,97366.29
2019-05-16T23:05:59.257Z,97368.22
2019-05-16T23:08:31.411Z,97358.96
2019-05-16T23:11:03.663Z,97357.32
2019-05-16T23:13:35.830Z,97349.63
2019-05-16T23:16:08.529Z,97350.15
2019-05-16T23:18:40.816Z,97349.46
2019-05-16T23:21:13.102Z,97344.05
2019-05-16T23:23:46.501Z,97344.45
2019-05-16T23:26:18.871Z,97341.05
2019-05-16T23:28:51.149Z,97340.61
2019-05-16T23:31:23.874Z,97331.98
2019-05-16T23:33:56.582Z,97330.63
2019-05-16T23:36:29.085Z,97330.78
2019-05-16T23:39:01.552Z,97330.16
2019-05-16T23:41:33.678Z,97327.66
2019-05-16T23:44:07.461Z,97325.86
2019-05-16T23:46:40.180Z,97325.53
2019-05-16T23:49:12.379Z,97326.50
2019-05-16T23:51:44.503Z,97322.30
2019-05-16T23:54:17.352Z,97314.00
2019-05-16T23:56:49.690Z,97311.55
2019-05-16T23:59:21.848Z,97309.91
